Schroeder, Minnesota
Current Conditions -  °F | °C
As of 12:14 AM on Tuesday 21 Oct 2014 (Local Time) from KCKC Reporting Station
Overcast Overcast  
Wind Chill: 36°   Ceiling: 1500
Heat Index: 36°   Visibility: 10mi
Dew Point: 28°   Wind: 3mph
Humidity: 75%   Direction: 30°NNE
Pressure: 30.14"   Gusts: NA
Location:  47.54°N, 90.89°W
Report Text: KCKC 210514Z AUTO 03003KT 10SM OVC015 02/M02 A3014 RMK AO2
Loading
Personal Weather Stations






























Interactive Weather Map
Tropical Storm Tracking
New forecast layout! Learn more

10-Day Weather Forecast

Advertisements
Track Severe Weather on mobile